sensor_id;sensor_type;location;lat;lon;timestamp;temperature;humidity
42031;DHT22;27709;52.036;5.906;2023-05-14T00:00:38;14.90;99.90
42031;DHT22;27709;52.036;5.906;2023-05-14T00:03:03;14.80;99.90
42031;DHT22;27709;52.036;5.906;2023-05-14T00:05:29;14.80;99.90
42031;DHT22;27709;52.036;5.906;2023-05-14T00:07:54;14.70;99.90
42031;DHT22;27709;52.036;5.906;2023-05-14T00:10:20;14.60;99.90
42031;DHT22;27709;52.036;5.906;2023-05-14T00:12:46;14.60;99.90
42031;DHT22;27709;52.036;5.906;2023-05-14T00:15:11;14.50;99.90
42031;DHT22;27709;52.036;5.906;2023-05-14T00:17:37;14.50;99.90
42031;DHT22;27709;52.036;5.906;2023-05-14T00:20:03;14.40;99.90
42031;DHT22;27709;52.036;5.906;2023-05-14T00:22:31;14.30;99.90
42031;DHT22;27709;52.036;5.906;2023-05-14T00:24:57;14.30;99.90
42031;DHT22;27709;52.036;5.906;2023-05-14T00:27:22;14.30;99.90
42031;DHT22;27709;52.036;5.906;2023-05-14T00:29:48;14.30;99.90
42031;DHT22;27709;52.036;5.906;2023-05-14T00:32:13;14.30;99.90
42031;DHT22;27709;52.036;5.906;2023-05-14T00:34:39;14.30;99.90
42031;DHT22;27709;52.036;5.906;2023-05-14T00:37:04;14.20;99.90
42031;DHT22;27709;52.036;5.906;2023-05-14T00:39:30;14.20;99.90
42031;DHT22;27709;52.036;5.906;2023-05-14T00:41:55;14.10;99.90
42031;DHT22;27709;52.036;5.906;2023-05-14T00:44:23;14.00;99.90
42031;DHT22;27709;52.036;5.906;2023-05-14T00:46:48;13.90;99.90
42031;DHT22;27709;52.036;5.906;2023-05-14T00:49:14;13.90;99.90
42031;DHT22;27709;52.036;5.906;2023-05-14T00:51:39;13.90;99.90
42031;DHT22;27709;52.036;5.906;2023-05-14T00:54:06;13.90;99.90
42031;DHT22;27709;52.036;5.906;2023-05-14T00:56:31;14.00;99.90
42031;DHT22;27709;52.036;5.906;2023-05-14T00:58:58;13.90;99.90
42031;DHT22;27709;52.036;5.906;2023-05-14T01:01:23;13.90;99.90
42031;DHT22;27709;52.036;5.906;2023-05-14T01:03:49;13.90;99.90
42031;DHT22;27709;52.036;5.906;2023-05-14T01:06:19;13.90;99.90
42031;DHT22;27709;52.036;5.906;2023-05-14T01:11:28;14.10;99.90
42031;DHT22;27709;52.036;5.906;2023-05-14T01:14:41;14.20;99.90
42031;DHT22;27709;52.036;5.906;2023-05-14T01:16:39;14.20;99.90
42031;DHT22;27709;52.036;5.906;2023-05-14T01:19:06;14.10;99.90
42031;DHT22;27709;52.036;5.906;2023-05-14T01:21:38;14.10;99.90
42031;DHT22;27709;52.036;5.906;2023-05-14T01:24:05;14.10;99.90
42031;DHT22;27709;52.036;5.906;2023-05-14T01:26:31;14.00;99.90
42031;DHT22;27709;52.036;5.906;2023-05-14T01:28:59;14.00;99.90
42031;DHT22;27709;52.036;5.906;2023-05-14T01:31:27;13.90;99.90
42031;DHT22;27709;52.036;5.906;2023-05-14T01:33:56;13.90;99.90
42031;DHT22;27709;52.036;5.906;2023-05-14T01:36:22;13.80;99.90
42031;DHT22;27709;52.036;5.906;2023-05-14T01:38:48;13.80;99.90
42031;DHT22;27709;52.036;5.906;2023-05-14T01:41:15;13.70;99.90
42031;DHT22;27709;52.036;5.906;2023-05-14T01:43:42;13.70;99.90
42031;DHT22;27709;52.036;5.906;2023-05-14T01:46:08;13.70;99.90
42031;DHT22;27709;52.036;5.906;2023-05-14T01:48:33;13.70;99.90
42031;DHT22;27709;52.036;5.906;2023-05-14T01:50:59;13.70;99.90
42031;DHT22;27709;52.036;5.906;2023-05-14T01:53:24;13.60;99.90
42031;DHT22;27709;52.036;5.906;2023-05-14T01:55:50;13.70;99.90
42031;DHT22;27709;52.036;5.906;2023-05-14T01:58:15;13.70;99.90
42031;DHT22;27709;52.036;5.906;2023-05-14T02:00:41;13.60;99.90
42031;DHT22;27709;52.036;5.906;2023-05-14T02:03:06;13.60;99.90
42031;DHT22;27709;52.036;5.906;2023-05-14T02:05:32;13.50;99.90
42031;DHT22;27709;52.036;5.906;2023-05-14T02:07:57;13.40;99.90
42031;DHT22;27709;52.036;5.906;2023-05-14T02:10:22;13.40;99.90
42031;DHT22;27709;52.036;5.906;2023-05-14T02:12:48;13.30;99.90
42031;DHT22;27709;52.036;5.906;2023-05-14T02:15:13;13.30;99.90
42031;DHT22;27709;52.036;5.906;2023-05-14T02:17:39;13.20;99.90
42031;DHT22;27709;52.036;5.906;2023-05-14T02:20:04;13.20;99.90
42031;DHT22;27709;52.036;5.906;2023-05-14T02:22:30;13.10;99.90
42031;DHT22;27709;52.036;5.906;2023-05-14T02:24:56;13.10;99.90
42031;DHT22;27709;52.036;5.906;2023-05-14T02:27:21;13.10;99.90
42031;DHT22;27709;52.036;5.906;2023-05-14T02:29:47;13.10;99.90
42031;DHT22;27709;52.036;5.906;2023-05-14T02:32:12;13.10;99.90
42031;DHT22;27709;52.036;5.906;2023-05-14T02:34:39;13.10;99.90
42031;DHT22;27709;52.036;5.906;2023-05-14T02:37:04;13.00;99.90
42031;DHT22;27709;52.036;5.906;2023-05-14T02:39:30;13.00;99.90
42031;DHT22;27709;52.036;5.906;2023-05-14T02:41:55;12.90;99.90
42031;DHT22;27709;52.036;5.906;2023-05-14T02:44:21;12.80;99.90
42031;DHT22;27709;52.036;5.906;2023-05-14T02:46:46;12.80;99.90
42031;DHT22;27709;52.036;5.906;2023-05-14T02:49:12;12.70;99.90
42031;DHT22;27709;52.036;5.906;2023-05-14T02:51:37;12.70;99.90
42031;DHT22;27709;52.036;5.906;2023-05-14T02:54:03;12.70;99.90
42031;DHT22;27709;52.036;5.906;2023-05-14T02:56:28;12.70;99.90
42031;DHT22;27709;52.036;5.906;2023-05-14T02:58:54;12.60;99.90
42031;DHT22;27709;52.036;5.906;2023-05-14T03:01:19;12.50;99.90
42031;DHT22;27709;52.036;5.906;2023-05-14T03:03:44;12.50;99.90
42031;DHT22;27709;52.036;5.906;2023-05-14T03:06:10;12.50;99.90
42031;DHT22;27709;52.036;5.906;2023-05-14T03:08:36;12.40;99.90
42031;DHT22;27709;52.036;5.906;2023-05-14T03:11:01;12.40;99.90
42031;DHT22;27709;52.036;5.906;2023-05-14T03:13:27;12.40;99.90
42031;DHT22;27709;52.036;5.906;2023-05-14T03:15:52;12.30;99.90
42031;DHT22;27709;52.036;5.906;2023-05-14T03:18:19;12.30;99.90
42031;DHT22;27709;52.036;5.906;2023-05-14T03:20:45;12.30;99.90
42031;DHT22;27709;52.036;5.906;2023-05-14T03:23:10;12.30;99.90
42031;DHT22;27709;52.036;5.906;2023-05-14T03:25:36;12.30;99.90
42031;DHT22;27709;52.036;5.906;2023-05-14T03:28:01;12.20;99.90
42031;DHT22;27709;52.036;5.906;2023-05-14T03:30:27;12.20;99.90
42031;DHT22;27709;52.036;5.906;2023-05-14T03:32:52;12.20;99.90
42031;DHT22;27709;52.036;5.906;2023-05-14T03:35:18;12.10;99.90
42031;DHT22;27709;52.036;5.906;2023-05-14T03:37:43;12.10;99.90
42031;DHT22;27709;52.036;5.906;2023-05-14T03:40:09;12.10;99.90
42031;DHT22;27709;52.036;5.906;2023-05-14T03:42:35;12.20;99.90
42031;DHT22;27709;52.036;5.906;2023-05-14T03:45:00;12.10;99.90
42031;DHT22;27709;52.036;5.906;2023-05-14T03:47:25;12.10;99.90
42031;DHT22;27709;52.036;5.906;2023-05-14T03:49:51;12.10;99.90
42031;DHT22;27709;52.036;5.906;2023-05-14T03:52:16;12.10;99.90
42031;DHT22;27709;52.036;5.906;2023-05-14T03:54:42;12.10;99.90
42031;DHT22;27709;52.036;5.906;2023-05-14T03:57:07;12.10;99.90
42031;DHT22;27709;52.036;5.906;2023-05-14T03:59:33;12.10;99.90
42031;DHT22;27709;52.036;5.906;2023-05-14T04:01:58;12.10;99.90
42031;DHT22;27709;52.036;5.906;2023-05-14T04:04:24;12.10;99.90
42031;DHT22;27709;52.036;5.906;2023-05-14T04:06:49;12.10;99.90
42031;DHT22;27709;52.036;5.906;2023-05-14T04:09:16;12.10;99.90
42031;DHT22;27709;52.036;5.906;2023-05-14T04:11:42;12.10;99.90
42031;DHT22;27709;52.036;5.906;2023-05-14T04:14:10;12.10;99.90
42031;DHT22;27709;52.036;5.906;2023-05-14T04:16:36;12.00;99.90
42031;DHT22;27709;52.036;5.906;2023-05-14T04:19:01;12.00;99.90
42031;DHT22;27709;52.036;5.906;2023-05-14T04:21:28;11.90;99.90
42031;DHT22;27709;52.036;5.906;2023-05-14T04:23:53;11.90;99.90
42031;DHT22;27709;52.036;5.906;2023-05-14T04:26:18;11.90;99.90
42031;DHT22;27709;52.036;5.906;2023-05-14T04:28:44;11.90;99.90
42031;DHT22;27709;52.036;5.906;2023-05-14T04:31:09;12.00;99.90
42031;DHT22;27709;52.036;5.906;2023-05-14T04:33:35;12.00;99.90
42031;DHT22;27709;52.036;5.906;2023-05-14T04:36:00;12.10;99.90
42031;DHT22;27709;52.036;5.906;2023-05-14T04:38:26;12.10;99.90
42031;DHT22;27709;52.036;5.906;2023-05-14T04:40:53;12.10;99.90
42031;DHT22;27709;52.036;5.906;2023-05-14T04:43:18;12.20;99.90
42031;DHT22;27709;52.036;5.906;2023-05-14T04:45:44;12.20;99.90
42031;DHT22;27709;52.036;5.906;2023-05-14T04:48:09;12.30;99.90
42031;DHT22;27709;52.036;5.906;2023-05-14T04:50:35;12.30;99.90
42031;DHT22;27709;52.036;5.906;2023-05-14T04:53:00;12.40;99.90
42031;DHT22;27709;52.036;5.906;2023-05-14T04:55:27;12.50;99.90
42031;DHT22;27709;52.036;5.906;2023-05-14T04:57:52;12.60;99.90
42031;DHT22;27709;52.036;5.906;2023-05-14T05:00:18;12.70;99.90
42031;DHT22;27709;52.036;5.906;2023-05-14T05:02:46;12.70;99.90
42031;DHT22;27709;52.036;5.906;2023-05-14T05:05:11;12.80;99.90
42031;DHT22;27709;52.036;5.906;2023-05-14T05:07:37;12.80;99.90
42031;DHT22;27709;52.036;5.906;2023-05-14T05:10:02;12.80;99.90
42031;DHT22;27709;52.036;5.906;2023-05-14T05:12:28;12.90;99.90
42031;DHT22;27709;52.036;5.906;2023-05-14T05:14:55;13.00;99.90
42031;DHT22;27709;52.036;5.906;2023-05-14T05:17:20;13.00;99.90
42031;DHT22;27709;52.036;5.906;2023-05-14T05:19:46;13.10;99.90
42031;DHT22;27709;52.036;5.906;2023-05-14T05:22:12;13.10;99.90
42031;DHT22;27709;52.036;5.906;2023-05-14T05:24:37;13.30;99.90
42031;DHT22;27709;52.036;5.906;2023-05-14T05:27:03;13.30;99.90
42031;DHT22;27709;52.036;5.906;2023-05-14T05:29:30;13.50;99.90
42031;DHT22;27709;52.036;5.906;2023-05-14T05:31:55;13.60;99.90
42031;DHT22;27709;52.036;5.906;2023-05-14T05:34:21;13.70;99.90
42031;DHT22;27709;52.036;5.906;2023-05-14T05:36:47;13.70;99.90
42031;DHT22;27709;52.036;5.906;2023-05-14T05:39:13;13.70;99.90
42031;DHT22;27709;52.036;5.906;2023-05-14T05:41:41;13.80;99.90
42031;DHT22;27709;52.036;5.906;2023-05-14T05:44:06;13.80;99.90
42031;DHT22;27709;52.036;5.906;2023-05-14T05:46:32;13.90;99.90
42031;DHT22;27709;52.036;5.906;2023-05-14T05:48:57;14.00;99.90
42031;DHT22;27709;52.036;5.906;2023-05-14T05:51:23;14.10;99.90
42031;DHT22;27709;52.036;5.906;2023-05-14T05:53:49;14.10;99.90
42031;DHT22;27709;52.036;5.906;2023-05-14T05:56:14;14.20;99.90
42031;DHT22;27709;52.036;5.906;2023-05-14T05:58:39;14.20;99.90
42031;DHT22;27709;52.036;5.906;2023-05-14T06:01:05;14.20;99.90
42031;DHT22;27709;52.036;5.906;2023-05-14T06:03:30;14.40;99.90
42031;DHT22;27709;52.036;5.906;2023-05-14T06:05:56;14.50;99.90
42031;DHT22;27709;52.036;5.906;2023-05-14T06:08:21;14.60;99.90
42031;DHT22;27709;52.036;5.906;2023-05-14T06:10:47;15.00;99.90
42031;DHT22;27709;52.036;5.906;2023-05-14T06:13:12;15.70;99.90
42031;DHT22;27709;52.036;5.906;2023-05-14T06:15:38;16.60;99.90
42031;DHT22;27709;52.036;5.906;2023-05-14T06:18:03;17.40;99.90
42031;DHT22;27709;52.036;5.906;2023-05-14T06:20:29;18.10;99.90
42031;DHT22;27709;52.036;5.906;2023-05-14T06:22:54;18.80;99.90
42031;DHT22;27709;52.036;5.906;2023-05-14T06:25:20;19.50;99.90
42031;DHT22;27709;52.036;5.906;2023-05-14T06:27:47;20.00;99.90
42031;DHT22;27709;52.036;5.906;2023-05-14T06:30:14;20.30;99.90
42031;DHT22;27709;52.036;5.906;2023-05-14T06:32:40;20.50;99.80
42031;DHT22;27709;52.036;5.906;2023-05-14T06:35:05;20.80;99.50
42031;DHT22;27709;52.036;5.906;2023-05-14T06:37:31;21.30;99.30
42031;DHT22;27709;52.036;5.906;2023-05-14T06:39:56;21.80;98.30
42031;DHT22;27709;52.036;5.906;2023-05-14T06:42:22;22.20;97.50
42031;DHT22;27709;52.036;5.906;2023-05-14T06:44:47;22.70;97.20
42031;DHT22;27709;52.036;5.906;2023-05-14T06:47:13;23.20;96.30
42031;DHT22;27709;52.036;5.906;2023-05-14T06:49:38;23.50;95.40
42031;DHT22;27709;52.036;5.906;2023-05-14T06:52:04;23.90;95.30
42031;DHT22;27709;52.036;5.906;2023-05-14T06:54:29;24.40;94.90
42031;DHT22;27709;52.036;5.906;2023-05-14T06:56:55;24.30;93.70
42031;DHT22;27709;52.036;5.906;2023-05-14T06:59:21;24.00;93.60
42031;DHT22;27709;52.036;5.906;2023-05-14T07:01:47;23.70;93.80
42031;DHT22;27709;52.036;5.906;2023-05-14T07:04:12;23.50;93.60
42031;DHT22;27709;52.036;5.906;2023-05-14T07:06:37;23.50;95.10
42031;DHT22;27709;52.036;5.906;2023-05-14T07:09:03;23.80;95.20
42031;DHT22;27709;52.036;5.906;2023-05-14T07:11:28;24.00;94.00
42031;DHT22;27709;52.036;5.906;2023-05-14T07:13:54;24.20;93.60
42031;DHT22;27709;52.036;5.906;2023-05-14T07:16:19;24.40;93.60
42031;DHT22;27709;52.036;5.906;2023-05-14T07:18:45;24.50;92.80
42031;DHT22;27709;52.036;5.906;2023-05-14T07:21:10;24.70;92.40
42031;DHT22;27709;52.036;5.906;2023-05-14T07:23:36;24.80;92.50
42031;DHT22;27709;52.036;5.906;2023-05-14T07:26:03;24.80;92.00
42031;DHT22;27709;52.036;5.906;2023-05-14T07:28:29;24.90;92.20
42031;DHT22;27709;52.036;5.906;2023-05-14T07:30:54;25.10;91.50
42031;DHT22;27709;52.036;5.906;2023-05-14T07:33:20;25.40;91.70
42031;DHT22;27709;52.036;5.906;2023-05-14T07:35:45;25.70;90.00
42031;DHT22;27709;52.036;5.906;2023-05-14T07:38:11;25.70;89.20
42031;DHT22;27709;52.036;5.906;2023-05-14T07:40:36;25.80;90.30
42031;DHT22;27709;52.036;5.906;2023-05-14T07:43:02;26.10;90.60
42031;DHT22;27709;52.036;5.906;2023-05-14T07:45:27;26.20;87.80
42031;DHT22;27709;52.036;5.906;2023-05-14T07:47:53;26.10;87.60
42031;DHT22;27709;52.036;5.906;2023-05-14T07:50:18;26.00;89.70
42031;DHT22;27709;52.036;5.906;2023-05-14T07:52:44;25.80;88.70
42031;DHT22;27709;52.036;5.906;2023-05-14T07:55:09;25.80;87.50
42031;DHT22;27709;52.036;5.906;2023-05-14T07:57:35;25.80;87.60
42031;DHT22;27709;52.036;5.906;2023-05-14T08:00:02;25.90;88.10
42031;DHT22;27709;52.036;5.906;2023-05-14T08:02:27;26.10;89.70
42031;DHT22;27709;52.036;5.906;2023-05-14T08:04:53;26.30;86.50
42031;DHT22;27709;52.036;5.906;2023-05-14T08:07:19;26.40;86.20
42031;DHT22;27709;52.036;5.906;2023-05-14T08:09:45;26.40;86.20
42031;DHT22;27709;52.036;5.906;2023-05-14T08:12:10;26.40;84.60
42031;DHT22;27709;52.036;5.906;2023-05-14T08:14:36;26.50;86.60
42031;DHT22;27709;52.036;5.906;2023-05-14T08:17:01;26.80;86.80
42031;DHT22;27709;52.036;5.906;2023-05-14T08:19:27;27.30;86.60
42031;DHT22;27709;52.036;5.906;2023-05-14T08:21:53;27.70;83.80
42031;DHT22;27709;52.036;5.906;2023-05-14T08:24:18;27.90;81.80
42031;DHT22;27709;52.036;5.906;2023-05-14T08:26:43;28.20;83.20
42031;DHT22;27709;52.036;5.906;2023-05-14T08:29:09;28.50;79.00
42031;DHT22;27709;52.036;5.906;2023-05-14T08:31:34;28.90;80.30
42031;DHT22;27709;52.036;5.906;2023-05-14T08:34:00;29.20;76.60
42031;DHT22;27709;52.036;5.906;2023-05-14T08:36:26;29.50;72.80
42031;DHT22;27709;52.036;5.906;2023-05-14T08:38:51;29.50;73.60
42031;DHT22;27709;52.036;5.906;2023-05-14T08:41:16;29.70;71.10
42031;DHT22;27709;52.036;5.906;2023-05-14T08:46:12;29.90;67.40
42031;DHT22;27709;52.036;5.906;2023-05-14T08:48:38;29.70;65.60
42031;DHT22;27709;52.036;5.906;2023-05-14T08:51:04;29.40;67.60
42031;DHT22;27709;52.036;5.906;2023-05-14T08:53:31;29.20;69.70
42031;DHT22;27709;52.036;5.906;2023-05-14T08:55:56;28.90;69.10
42031;DHT22;27709;52.036;5.906;2023-05-14T08:58:23;28.70;69.50
42031;DHT22;27709;52.036;5.906;2023-05-14T09:00:50;28.50;68.40
42031;DHT22;27709;52.036;5.906;2023-05-14T09:03:15;28.30;67.40
42031;DHT22;27709;52.036;5.906;2023-05-14T09:05:43;28.00;67.90
42031;DHT22;27709;52.036;5.906;2023-05-14T09:08:09;27.90;68.70
42031;DHT22;27709;52.036;5.906;2023-05-14T09:10:35;28.00;68.10
42031;DHT22;27709;52.036;5.906;2023-05-14T09:13:01;28.20;67.30
42031;DHT22;27709;52.036;5.906;2023-05-14T09:15:26;28.40;65.50
42031;DHT22;27709;52.036;5.906;2023-05-14T09:17:53;28.80;70.20
42031;DHT22;27709;52.036;5.906;2023-05-14T09:20:18;29.20;65.80
42031;DHT22;27709;52.036;5.906;2023-05-14T09:22:44;29.40;65.90
42031;DHT22;27709;52.036;5.906;2023-05-14T09:25:10;29.50;65.10
42031;DHT22;27709;52.036;5.906;2023-05-14T09:27:36;29.50;62.90
42031;DHT22;27709;52.036;5.906;2023-05-14T09:30:05;29.50;63.70
42031;DHT22;27709;52.036;5.906;2023-05-14T09:32:35;29.70;64.10
42031;DHT22;27709;52.036;5.906;2023-05-14T09:35:07;29.90;66.40
42031;DHT22;27709;52.036;5.906;2023-05-14T09:37:35;29.90;61.00
42031;DHT22;27709;52.036;5.906;2023-05-14T09:40:04;29.70;61.50
42031;DHT22;27709;52.036;5.906;2023-05-14T09:42:30;29.70;58.70
42031;DHT22;27709;52.036;5.906;2023-05-14T09:44:55;29.50;60.50
42031;DHT22;27709;52.036;5.906;2023-05-14T09:47:21;29.50;59.10
42031;DHT22;27709;52.036;5.906;2023-05-14T09:49:47;29.40;60.30
42031;DHT22;27709;52.036;5.906;2023-05-14T09:52:12;29.30;56.10
42031;DHT22;27709;52.036;5.906;2023-05-14T09:54:38;29.20;56.40
42031;DHT22;27709;52.036;5.906;2023-05-14T09:57:04;29.20;52.90
42031;DHT22;27709;52.036;5.906;2023-05-14T09:59:30;29.10;52.10
42031;DHT22;27709;52.036;5.906;2023-05-14T10:01:55;28.90;53.00
42031;DHT22;27709;52.036;5.906;2023-05-14T10:04:21;28.80;53.40
42031;DHT22;27709;52.036;5.906;2023-05-14T10:06:47;28.70;54.70
42031;DHT22;27709;52.036;5.906;2023-05-14T10:09:15;28.80;54.20
42031;DHT22;27709;52.036;5.906;2023-05-14T10:11:41;28.80;55.60
42031;DHT22;27709;52.036;5.906;2023-05-14T10:14:10;28.80;54.20
42031;DHT22;27709;52.036;5.906;2023-05-14T10:16:43;28.70;52.50
42031;DHT22;27709;52.036;5.906;2023-05-14T10:19:10;28.70;53.40
42031;DHT22;27709;52.036;5.906;2023-05-14T10:21:37;28.70;51.70
42031;DHT22;27709;52.036;5.906;2023-05-14T10:24:03;28.80;55.00
42031;DHT22;27709;52.036;5.906;2023-05-14T10:26:29;28.80;51.00
42031;DHT22;27709;52.036;5.906;2023-05-14T10:28:56;28.90;54.60
42031;DHT22;27709;52.036;5.906;2023-05-14T10:31:22;28.90;56.20
42031;DHT22;27709;52.036;5.906;2023-05-14T10:33:48;29.10;56.10
42031;DHT22;27709;52.036;5.906;2023-05-14T10:36:14;29.00;51.50
42031;DHT22;27709;52.036;5.906;2023-05-14T10:38:40;29.00;55.90
42031;DHT22;27709;52.036;5.906;2023-05-14T10:41:06;28.90;55.70
42031;DHT22;27709;52.036;5.906;2023-05-14T10:43:38;28.90;56.50
42031;DHT22;27709;52.036;5.906;2023-05-14T10:46:03;28.80;55.40
42031;DHT22;27709;52.036;5.906;2023-05-14T10:48:29;28.70;53.90
42031;DHT22;27709;52.036;5.906;2023-05-14T10:50:55;28.60;53.70
42031;DHT22;27709;52.036;5.906;2023-05-14T10:53:30;28.40;52.70
42031;DHT22;27709;52.036;5.906;2023-05-14T10:55:56;28.30;53.30
42031;DHT22;27709;52.036;5.906;2023-05-14T10:58:21;28.20;48.60
42031;DHT22;27709;52.036;5.906;2023-05-14T11:00:46;28.10;52.80
42031;DHT22;27709;52.036;5.906;2023-05-14T11:03:14;28.00;52.90
42031;DHT22;27709;52.036;5.906;2023-05-14T11:05:40;27.90;55.50
42031;DHT22;27709;52.036;5.906;2023-05-14T11:08:05;28.10;56.80
42031;DHT22;27709;52.036;5.906;2023-05-14T11:10:32;28.20;56.40
42031;DHT22;27709;52.036;5.906;2023-05-14T11:12:58;28.30;57.70
42031;DHT22;27709;52.036;5.906;2023-05-14T11:15:24;28.40;57.20
42031;DHT22;27709;52.036;5.906;2023-05-14T11:17:50;28.30;56.80
42031;DHT22;27709;52.036;5.906;2023-05-14T11:20:16;27.90;54.70
42031;DHT22;27709;52.036;5.906;2023-05-14T11:22:42;27.40;50.60
42031;DHT22;27709;52.036;5.906;2023-05-14T11:25:08;26.90;52.10
42031;DHT22;27709;52.036;5.906;2023-05-14T11:27:35;26.70;55.50
42031;DHT22;27709;52.036;5.906;2023-05-14T11:30:00;26.90;55.70
42031;DHT22;27709;52.036;5.906;2023-05-14T11:32:26;27.10;53.70
42031;DHT22;27709;52.036;5.906;2023-05-14T11:34:52;27.30;50.70
42031;DHT22;27709;52.036;5.906;2023-05-14T11:37:17;27.50;49.80
42031;DHT22;27709;52.036;5.906;2023-05-14T11:39:47;27.60;49.70
42031;DHT22;27709;52.036;5.906;2023-05-14T11:42:13;27.60;52.20
42031;DHT22;27709;52.036;5.906;2023-05-14T11:44:40;27.60;51.30
42031;DHT22;27709;52.036;5.906;2023-05-14T11:47:08;27.70;52.40
42031;DHT22;27709;52.036;5.906;2023-05-14T11:49:34;27.80;50.80
42031;DHT22;27709;52.036;5.906;2023-05-14T11:52:01;27.80;49.20
42031;DHT22;27709;52.036;5.906;2023-05-14T11:54:28;27.60;44.50
42031;DHT22;27709;52.036;5.906;2023-05-14T11:56:57;27.50;48.30
42031;DHT22;27709;52.036;5.906;2023-05-14T11:59:23;27.60;49.30
42031;DHT22;27709;52.036;5.906;2023-05-14T12:01:48;27.60;49.40
42031;DHT22;27709;52.036;5.906;2023-05-14T12:04:14;27.50;46.20
42031;DHT22;27709;52.036;5.906;2023-05-14T12:06:39;27.20;47.10
42031;DHT22;27709;52.036;5.906;2023-05-14T12:09:05;27.00;48.70
42031;DHT22;27709;52.036;5.906;2023-05-14T12:11:31;27.00;48.90
42031;DHT22;27709;52.036;5.906;2023-05-14T12:13:57;26.80;49.10
42031;DHT22;27709;52.036;5.906;2023-05-14T12:16:23;26.70;51.70
42031;DHT22;27709;52.036;5.906;2023-05-14T12:18:53;26.70;52.60
42031;DHT22;27709;52.036;5.906;2023-05-14T12:21:23;26.50;49.40
42031;DHT22;27709;52.036;5.906;2023-05-14T12:23:53;26.50;51.20
42031;DHT22;27709;52.036;5.906;2023-05-14T12:26:21;26.50;50.10
42031;DHT22;27709;52.036;5.906;2023-05-14T12:28:46;26.60;52.90
42031;DHT22;27709;52.036;5.906;2023-05-14T12:31:11;26.60;49.20
42031;DHT22;27709;52.036;5.906;2023-05-14T12:33:37;26.50;50.90
42031;DHT22;27709;52.036;5.906;2023-05-14T12:36:02;26.40;51.80
42031;DHT22;27709;52.036;5.906;2023-05-14T12:38:28;26.30;47.60
42031;DHT22;27709;52.036;5.906;2023-05-14T12:40:53;26.20;47.90
42031;DHT22;27709;52.036;5.906;2023-05-14T12:43:19;26.20;48.40
42031;DHT22;27709;52.036;5.906;2023-05-14T12:45:44;26.30;47.90
42031;DHT22;27709;52.036;5.906;2023-05-14T12:48:10;26.40;48.80
42031;DHT22;27709;52.036;5.906;2023-05-14T12:50:35;26.40;50.20
42031;DHT22;27709;52.036;5.906;2023-05-14T12:53:00;26.30;50.70
42031;DHT22;27709;52.036;5.906;2023-05-14T12:55:26;26.30;52.40
42031;DHT22;27709;52.036;5.906;2023-05-14T12:57:52;26.30;52.00
42031;DHT22;27709;52.036;5.906;2023-05-14T13:00:18;26.20;51.80
42031;DHT22;27709;52.036;5.906;2023-05-14T13:02:43;26.20;50.90
42031;DHT22;27709;52.036;5.906;2023-05-14T13:05:09;26.10;50.10
42031;DHT22;27709;52.036;5.906;2023-05-14T13:07:36;26.00;51.80
42031;DHT22;27709;52.036;5.906;2023-05-14T13:10:02;26.00;53.00
42031;DHT22;27709;52.036;5.906;2023-05-14T13:12:30;26.10;58.00
42031;DHT22;27709;52.036;5.906;2023-05-14T13:14:55;26.20;61.50
42031;DHT22;27709;52.036;5.906;2023-05-14T13:17:21;26.40;61.60
42031;DHT22;27709;52.036;5.906;2023-05-14T13:19:46;26.40;60.80
42031;DHT22;27709;52.036;5.906;2023-05-14T13:22:12;26.40;60.60
42031;DHT22;27709;52.036;5.906;2023-05-14T13:24:38;26.40;62.40
42031;DHT22;27709;52.036;5.906;2023-05-14T13:27:04;26.40;61.20
42031;DHT22;27709;52.036;5.906;2023-05-14T13:29:29;26.40;57.60
42031;DHT22;27709;52.036;5.906;2023-05-14T13:31:55;26.20;56.70
42031;DHT22;27709;52.036;5.906;2023-05-14T13:34:21;26.00;51.80
42031;DHT22;27709;52.036;5.906;2023-05-14T13:36:46;26.00;52.80
42031;DHT22;27709;52.036;5.906;2023-05-14T13:39:14;26.00;51.80
42031;DHT22;27709;52.036;5.906;2023-05-14T13:41:39;25.90;53.50
42031;DHT22;27709;52.036;5.906;2023-05-14T13:44:05;25.90;55.90
42031;DHT22;27709;52.036;5.906;2023-05-14T13:46:31;25.90;58.20
42031;DHT22;27709;52.036;5.906;2023-05-14T13:48:56;26.00;62.50
42031;DHT22;27709;52.036;5.906;2023-05-14T13:51:22;26.10;64.20
42031;DHT22;27709;52.036;5.906;2023-05-14T13:53:47;26.20;63.70
42031;DHT22;27709;52.036;5.906;2023-05-14T13:56:13;26.30;63.20
42031;DHT22;27709;52.036;5.906;2023-05-14T13:58:38;26.30;60.90
42031;DHT22;27709;52.036;5.906;2023-05-14T14:01:04;26.30;60.00
42031;DHT22;27709;52.036;5.906;2023-05-14T14:03:29;26.20;60.80
42031;DHT22;27709;52.036;5.906;2023-05-14T14:05:55;26.00;60.60
42031;DHT22;27709;52.036;5.906;2023-05-14T14:08:20;26.00;61.00
42031;DHT22;27709;52.036;5.906;2023-05-14T14:10:45;25.90;61.60
42031;DHT22;27709;52.036;5.906;2023-05-14T14:13:11;25.90;62.50
42031;DHT22;27709;52.036;5.906;2023-05-14T14:15:37;25.90;62.10
42031;DHT22;27709;52.036;5.906;2023-05-14T14:18:02;25.80;63.10
42031;DHT22;27709;52.036;5.906;2023-05-14T14:20:28;25.80;65.10
42031;DHT22;27709;52.036;5.906;2023-05-14T14:22:54;25.70;63.00
42031;DHT22;27709;52.036;5.906;2023-05-14T14:25:19;25.60;64.80
42031;DHT22;27709;52.036;5.906;2023-05-14T14:27:44;25.60;64.40
42031;DHT22;27709;52.036;5.906;2023-05-14T14:30:10;25.50;63.70
42031;DHT22;27709;52.036;5.906;2023-05-14T14:32:43;25.50;65.10
42031;DHT22;27709;52.036;5.906;2023-05-14T14:35:09;25.40;65.00
42031;DHT22;27709;52.036;5.906;2023-05-14T14:37:35;25.30;63.40
42031;DHT22;27709;52.036;5.906;2023-05-14T14:40:00;25.20;65.20
42031;DHT22;27709;52.036;5.906;2023-05-14T14:42:25;25.10;65.50
42031;DHT22;27709;52.036;5.906;2023-05-14T14:44:51;25.00;65.60
42031;DHT22;27709;52.036;5.906;2023-05-14T14:47:16;24.90;66.10
42031;DHT22;27709;52.036;5.906;2023-05-14T14:49:42;24.80;66.10
42031;DHT22;27709;52.036;5.906;2023-05-14T14:52:07;24.70;66.80
42031;DHT22;27709;52.036;5.906;2023-05-14T14:54:33;24.60;67.80
42031;DHT22;27709;52.036;5.906;2023-05-14T14:56:58;24.60;67.20
42031;DHT22;27709;52.036;5.906;2023-05-14T14:59:23;24.60;68.70
42031;DHT22;27709;52.036;5.906;2023-05-14T15:01:49;24.60;68.00
42031;DHT22;27709;52.036;5.906;2023-05-14T15:04:15;24.60;67.50
42031;DHT22;27709;52.036;5.906;2023-05-14T15:06:40;24.60;68.20
42031;DHT22;27709;52.036;5.906;2023-05-14T15:09:06;24.50;67.60
42031;DHT22;27709;52.036;5.906;2023-05-14T15:11:31;24.50;68.50
42031;DHT22;27709;52.036;5.906;2023-05-14T15:13:57;24.50;68.40
42031;DHT22;27709;52.036;5.906;2023-05-14T15:16:22;24.50;67.20
42031;DHT22;27709;52.036;5.906;2023-05-14T15:18:48;24.30;67.10
42031;DHT22;27709;52.036;5.906;2023-05-14T15:21:13;24.20;67.50
42031;DHT22;27709;52.036;5.906;2023-05-14T15:23:39;24.10;67.80
42031;DHT22;27709;52.036;5.906;2023-05-14T15:26:04;24.00;68.40